Time;durP1;ratioP1;P1;durP2;ratioP2;P2;SDS_P1;SDS_P2;PMS_P1;PMS_P2;Temp;Humidity;BMP_temperature;BMP_pressure;BME280_temperature;BME280_humidity;BME280_pressure;Samples;Min_cycle;Max_cycle;Signal;HPM_P1;HPM_P2
2023/04/21 00:00:28;;;;;;;11.57;5.35;;;;;;;2.47;48.14;97143.53;6296840;28;20019;-74
2023/04/21 00:03:37;;;;;;;12.00;4.53;;;;;;;2.48;47.48;97149.56;6296930;28;20037;-75
2023/04/21 00:06:43;;;;;;;11.35;5.60;;;;;;;2.52;47.12;97140.81;6296417;28;20063;-74
2023/04/21 00:09:47;;;;;;;16.33;8.88;;;;;;;2.53;46.87;97141.66;6294996;28;20514;-74
2023/04/21 00:12:51;;;;;;;15.07;5.97;;;;;;;2.52;46.47;97143.41;6295121;28;20070;-74
2023/04/21 00:15:55;;;;;;;;;;;;;;;2.55;45.65;97132.91;6296558;28;20048;-73
2023/04/21 00:19:01;;;;;;;8.48;3.22;;;;;;;2.67;45.25;97129.97;6296426;28;19926;-74
2023/04/21 00:22:09;;;;;;;10.70;4.90;;;;;;;2.68;45.23;97130.81;6296283;28;20044;-74
2023/04/21 00:25:14;;;;;;;14.95;5.82;;;;;;;2.60;45.45;97138.81;6296197;28;20453;-74
2023/04/21 00:28:19;;;;;;;13.85;5.40;;;;;;;2.50;45.54;97137.38;6296100;28;20048;-74
2023/04/21 00:31:24;;;;;;;14.10;6.05;;;;;;;2.46;45.59;97127.97;6294646;28;20048;-73
2023/04/21 00:34:29;;;;;;;14.80;5.65;;;;;;;2.42;45.57;97126.38;6294747;28;20049;-73
2023/04/21 00:37:34;;;;;;;13.25;6.07;;;;;;;2.42;46.00;97128.97;6295809;28;20036;-74
2023/04/21 00:40:39;;;;;;;7.25;3.63;;;;;;;2.54;45.54;97127.75;6295899;28;20453;-73
2023/04/21 00:44:04;;;;;;;6.40;3.58;;;;;;;2.85;44.54;97127.69;6295757;28;20094;-73
2023/04/21 00:47:09;;;;;;;7.05;3.10;;;;;;;3.07;43.90;97128.75;6295482;28;20047;-73
2023/04/21 00:50:12;;;;;;;;;;;;;;;3.22;43.18;97126.56;6295087;28;20421;-73
2023/04/21 00:53:17;;;;;;;7.80;3.72;;;;;;;3.33;43.09;97130.53;6295411;28;19968;-74
2023/04/21 00:56:23;;;;;;;11.82;4.85;;;;;;;3.35;43.25;97123.53;6295440;28;20093;-73
2023/04/21 00:59:27;;;;;;;37.88;18.73;;;;;;;3.31;43.29;97127.16;6295747;28;20044;-74
2023/04/21 01:02:30;;;;;;;19.13;7.47;;;;;;;3.15;43.56;97131.97;6294049;28;20056;-74
2023/04/21 01:05:35;;;;;;;13.35;6.68;;;;;;;2.97;44.05;97127.31;6295151;28;20032;-74
2023/04/21 01:08:41;;;;;;;15.15;6.25;;;;;;;2.89;44.26;97129.34;6295193;28;20414;-74
2023/04/21 01:12:04;;;;;;;12.32;6.35;;;;;;;2.87;43.95;97128.50;6293905;28;20048;-73
2023/04/21 01:15:08;;;;;;;14.40;6.00;;;;;;;2.80;44.17;97139.97;6294771;28;20044;-74
2023/04/21 01:18:13;;;;;;;8.02;2.63;;;;;;;2.80;44.03;97119.19;6295023;28;20106;-73
2023/04/21 01:21:18;;;;;;;5.63;2.85;;;;;;;3.04;43.80;97139.25;6295367;28;20426;-74
2023/04/21 01:24:24;;;;;;;8.77;4.68;;;;;;;3.18;43.44;97132.78;6293617;28;20083;-75
2023/04/21 01:27:30;;;;;;;15.60;7.63;;;;;;;3.23;43.19;97138.66;6294922;28;20514;-74
2023/04/21 01:30:35;;;;;;;15.02;7.25;;;;;;;3.20;43.33;97138.75;6294924;28;20062;-73
2023/04/21 01:33:40;;;;;;;28.98;7.72;;;;;;;3.23;43.40;97139.53;6294742;28;20051;-74
2023/04/21 01:36:45;;;;;;;15.60;7.65;;;;;;;3.29;43.60;97138.50;6294676;28;20044;-74
2023/04/21 01:39:53;;;;;;;18.95;9.13;;;;;;;3.35;43.50;97133.94;6295116;28;20486;-74
2023/04/21 01:42:57;;;;;;;15.95;7.97;;;;;;;3.53;42.93;97132.47;6294861;28;20047;-74
2023/04/21 01:45:59;;;;;;;;;;;;;;;3.77;42.38;97136.03;6294824;28;20040;-73
2023/04/21 01:49:07;;;;;;;12.07;4.82;;;;;;;3.97;42.11;97135.34;6294641;28;20400;-75
2023/04/21 01:52:10;;;;;;;;;;;;;;;4.14;41.69;97141.75;6294852;28;20501;-74
2023/04/21 01:55:13;;;;;;;18.15;8.70;;;;;;;4.35;41.23;97137.53;6293422;28;20381;-74
2023/04/21 01:58:17;;;;;;;;;;;;;;;4.52;41.19;97136.91;6294811;28;20051;-73
2023/04/21 02:01:22;;;;;;;14.23;7.35;;;;;;;4.67;40.79;97138.94;6294577;28;19920;-74
2023/04/21 02:04:26;;;;;;;15.82;7.43;;;;;;;4.84;41.01;97144.41;6294473;28;20414;-74
2023/04/21 02:07:29;;;;;;;;;;;;;;;4.98;40.44;97143.00;6294988;28;20043;-73
2023/04/21 02:10:35;;;;;;;16.63;6.57;;;;;;;5.12;40.19;97138.09;6294248;28;20014;-74
2023/04/21 02:13:39;;;;;;;14.90;6.40;;;;;;;5.40;40.19;97148.31;6293983;28;20539;-75
2023/04/21 02:16:42;;;;;;;;;;;;;;;5.59;39.71;97151.03;6294204;28;20067;-73
2023/04/21 02:19:47;;;;;;;11.05;4.15;;;;;;;5.74;39.28;97150.41;6293919;28;20403;-74
2023/04/21 02:22:52;;;;;;;5.93;3.10;;;;;;;6.04;38.79;97147.47;6294381;28;20040;-74
2023/04/21 02:25:57;;;;;;;12.55;4.32;;;;;;;6.20;38.69;97158.97;6292963;28;20430;-75
2023/04/21 02:29:01;;;;;;;5.97;3.08;;;;;;;6.37;37.99;97149.53;6293898;28;20520;-74
2023/04/21 02:32:06;;;;;;;5.72;3.00;;;;;;;6.54;38.01;97147.06;6297192;28;20046;-73
2023/04/21 02:35:12;;;;;;;9.20;3.72;;;;;;;6.64;38.09;97153.56;6297587;28;20086;-74
2023/04/21 02:38:16;;;;;;;6.22;2.92;;;;;;;6.93;37.94;97148.75;6297023;28;20055;-74
2023/04/21 02:41:19;;;;;;;;;;;;;;;7.21;37.70;97148.34;6298671;28;20405;-74
2023/04/21 02:44:23;;;;;;;19.15;10.45;;;;;;;7.43;37.16;97153.41;6313760;28;20297;-74
2023/04/21 02:47:26;;;;;;;;;;;;;;;7.74;37.04;97154.56;6298688;28;20044;-74
2023/04/21 02:50:32;;;;;;;9.63;3.45;;;;;;;7.96;36.69;97152.56;6297114;28;19924;-74
2023/04/21 02:53:39;;;;;;;12.45;3.13;;;;;;;8.22;36.03;97159.09;6297158;28;20041;-74
2023/04/21 02:56:43;;;;;;;7.07;2.60;;;;;;;8.45;35.36;97150.09;6298131;28;20043;-74
2023/04/21 02:59:46;;;;;;;;;;;;;;;8.78;35.43;97151.88;6298503;28;20414;-74
2023/04/21 03:02:52;;;;;;;6.97;2.88;;;;;;;9.02;34.68;97143.63;6298045;28;20300;-74
2023/04/21 03:05:59;;;;;;;5.45;2.88;;;;;;;9.27;34.78;97149.22;6296779;28;20044;-75
2023/04/21 03:09:03;;;;;;;4.28;2.45;;;;;;;9.29;34.41;97152.63;6298092;28;20040;-74
2023/04/21 03:12:06;;;;;;;;;;;;;;;9.56;33.98;97150.22;6298343;28;20040;-74
2023/04/21 03:15:10;;;;;;;7.13;2.45;;;;;;;9.65;33.70;97151.47;6297617;28;20014;-74
2023/04/21 03:18:13;;;;;;;;;;;;;;;9.87;34.00;97157.19;6297174;28;20525;-75
2023/04/21 03:21:18;;;;;;;3.97;2.63;;;;;;;10.14;33.44;97159.19;6298057;28;19946;-74
2023/04/21 03:24:23;;;;;;;10.80;3.05;;;;;;;10.32;33.06;97158.09;6297511;28;20054;-72
2023/04/21 03:27:28;;;;;;;2.35;2.10;;;;;;;10.43;33.11;97159.25;6297405;28;20422;-74
2023/04/21 03:30:33;;;;;;;4.05;1.95;;;;;;;10.45;33.09;97149.50;6297367;28;20037;-73
2023/04/21 03:33:37;;;;;;;4.50;1.88;;;;;;;10.61;32.47;97158.16;6297410;28;20040;-74
2023/04/21 03:36:41;;;;;;;;;;;;;;;10.87;32.35;97155.72;6297745;28;20456;-73
2023/04/21 03:39:46;;;;;;;2.95;2.00;;;;;;;11.06;32.30;97156.28;6297082;28;19922;-74
2023/04/21 03:42:51;;;;;;;5.47;1.88;;;;;;;11.17;32.13;97159.09;6295921;28;20040;-73
2023/04/21 03:45:55;;;;;;;4.95;2.10;;;;;;;11.19;32.04;97157.22;6297475;28;20059;-73
2023/04/21 03:49:00;;;;;;;10.82;4.53;;;;;;;11.14;31.90;97158.44;6295827;28;20044;-74
2023/04/21 03:52:03;;;;;;;6.20;3.00;;;;;;;11.26;31.97;97154.19;6297157;28;20044;-74
2023/04/21 03:55:10;;;;;;;7.50;2.10;;;;;;;11.40;31.59;97162.06;6296597;28;20051;-74
2023/04/21 03:58:37;;;;;;;5.72;2.47;;;;;;;11.61;31.37;97158.06;6296359;28;20040;-76
2023/04/21 04:01:41;;;;;;;3.35;2.15;;;;;;;11.50;31.44;97155.25;6295350;28;20154;-74
2023/04/21 04:04:46;;;;;;;6.55;2.80;;;;;;;11.57;31.08;97148.63;6296869;28;20132;-73
2023/04/21 04:07:51;;;;;;;7.30;2.92;;;;;;;11.74;31.08;97149.34;6296612;28;20040;-73
2023/04/21 04:10:57;;;;;;;4.55;2.60;;;;;;;11.81;30.74;97150.66;6295460;28;20052;-74
2023/04/21 04:14:01;;;;;;;5.20;1.77;;;;;;;11.97;30.34;97143.44;6296244;28;20118;-74
2023/04/21 04:17:06;;;;;;;5.15;1.90;;;;;;;12.26;29.83;97138.03;6296158;28;20186;-74
2023/04/21 04:20:10;;;;;;;5.13;2.25;;;;;;;12.70;29.28;97142.06;6294523;28;20040;-74
2023/04/21 04:23:14;;;;;;;6.35;2.95;;;;;;;13.17;28.79;97140.53;6294870;28;20086;-74
2023/04/21 04:26:19;;;;;;;7.45;2.67;;;;;;;13.62;28.08;97140.84;6295802;28;20059;-74
2023/04/21 04:29:23;;;;;;;4.70;2.67;;;;;;;13.81;27.81;97141.16;6295903;28;20037;-75
2023/04/21 04:32:28;;;;;;;3.95;2.38;;;;;;;14.14;27.75;97140.47;6294305;28;20422;-74
2023/04/21 04:35:33;;;;;;;5.57;2.25;;;;;;;14.49;27.18;97136.97;6293937;28;20056;-74
2023/04/21 04:38:39;;;;;;;2.67;1.80;;;;;;;14.80;26.79;97145.22;6295918;28;20055;-74
2023/04/21 04:41:43;;;;;;;3.85;1.70;;;;;;;14.96;26.45;97139.59;6295812;28;20045;-74
2023/04/21 04:44:51;;;;;;;4.00;1.90;;;;;;;15.22;26.09;97140.16;6295675;28;20430;-75
2023/04/21 04:47:55;;;;;;;3.28;1.20;;;;;;;15.33;25.88;97136.69;6295676;28;20048;-74
2023/04/21 04:51:00;;;;;;;5.97;1.67;;;;;;;15.52;25.71;97136.88;6293972;28;20282;-74
2023/04/21 04:54:05;;;;;;;2.42;1.23;;;;;;;15.94;25.05;97131.75;6293919;28;20048;-74
2023/04/21 04:57:09;;;;;;;1.92;1.10;;;;;;;16.07;25.04;97129.72;6294292;28;20460;-73
2023/04/21 05:00:13;;;;;;;1.73;1.40;;;;;;;16.46;24.33;97108.78;6295376;28;20494;-74
2023/04/21 05:03:17;;;;;;;2.60;1.10;;;;;;;16.92;24.10;97112.81;6294216;28;20045;-74
2023/04/21 05:06:24;;;;;;;1.58;0.90;;;;;;;17.67;23.35;97113.34;6295404;28;20425;-74
2023/04/21 05:09:29;;;;;;;1.60;1.20;;;;;;;18.54;22.59;97117.84;6295208;28;20047;-73
2023/04/21 05:12:34;;;;;;;1.88;0.80;;;;;;;19.62;21.16;97114.66;6295291;28;20055;-75
2023/04/21 05:15:38;;;;;;;2.67;1.40;;;;;;;20.52;20.40;97112.84;6295055;28;20151;-75
2023/04/21 05:18:42;;;;;;;2.13;1.08;;;;;;;21.64;19.30;97113.78;6295107;28;20098;-74
2023/04/21 05:21:45;;;;;;;1.70;1.00;;;;;;;22.50;18.73;97123.31;6295215;28;20064;-74
2023/04/21 05:24:50;;;;;;;2.20;1.17;;;;;;;22.93;18.35;97121.25;6294973;28;20143;-75
2023/04/21 05:27:55;;;;;;;2.78;1.05;;;;;;;23.30;17.55;97118.00;6294827;28;20037;-74
2023/04/21 05:30:59;;;;;;;2.60;1.30;;;;;;;23.89;17.14;97112.19;6277125;28;20044;-75
2023/04/21 05:34:03;;;;;;;2.25;1.13;;;;;;;24.15;16.89;97110.00;6293323;28;20198;-74
2023/04/21 05:37:09;;;;;;;1.88;1.15;;;;;;;24.26;15.86;97111.47;6293517;28;20040;-73
2023/04/21 05:40:13;;;;;;;1.83;0.93;;;;;;;23.63;16.35;97107.09;6294776;28;20040;-73
2023/04/21 05:43:17;;;;;;;1.20;0.90;;;;;;;23.24;16.43;97113.31;6293388;28;20502;-73
2023/04/21 05:46:21;;;;;;;1.98;1.05;;;;;;;23.52;16.59;97102.94;6294531;28;20040;-75
2023/04/21 05:49:24;;;;;;;2.40;1.00;;;;;;;24.51;15.88;97105.88;6293145;28;20040;-73
2023/04/21 05:52:28;;;;;;;1.52;0.90;;;;;;;25.31;15.27;97098.03;6292800;28;20059;-74
2023/04/21 05:55:37;;;;;;;1.45;0.80;;;;;;;25.90;14.19;97107.91;6294363;28;20044;-75
2023/04/21 05:58:41;;;;;;;1.17;0.75;;;;;;;26.09;14.04;97108.28;6293068;28;20039;-75
2023/04/21 06:01:46;;;;;;;2.72;0.90;;;;;;;25.77;13.72;97107.72;6294541;28;20135;-74
2023/04/21 06:04:52;;;;;;;2.03;0.85;;;;;;;25.07;14.06;97101.78;6294357;28;20418;-74
2023/04/21 06:07:56;;;;;;;4.80;0.98;;;;;;;23.58;15.25;97099.59;6298009;28;20417;-75
2023/04/21 06:11:01;;;;;;;3.17;1.00;;;;;;;22.74;15.39;97091.13;6299305;28;20071;-74
2023/04/21 06:14:05;;;;;;;1.00;0.80;;;;;;;22.27;15.92;97094.50;6298159;28;20174;-74
2023/04/21 06:17:09;;;;;;;1.45;0.95;;;;;;;21.43;16.70;97085.63;6299274;28;20056;-74
2023/04/21 06:20:16;;;;;;;5.68;1.40;;;;;;;20.17;18.09;97087.81;6299144;28;20048;-75
2023/04/21 06:23:20;;;;;;;2.15;1.20;;;;;;;19.27;18.55;97086.88;6299032;28;20048;-74
2023/04/21 06:26:25;;;;;;;2.65;1.20;;;;;;;18.73;19.05;97074.31;6299003;28;20037;-73
2023/04/21 06:29:30;;;;;;;2.85;1.10;;;;;;;18.15;18.77;97070.78;6297275;28;20048;-74
2023/04/21 06:32:34;;;;;;;2.08;1.05;;;;;;;17.67;18.68;97076.94;6298998;28;20138;-74
2023/04/21 06:35:39;;;;;;;2.65;1.48;;;;;;;17.10;19.34;97069.66;6297795;28;20094;-74
2023/04/21 06:38:42;;;;;;;5.30;2.13;;;;;;;16.69;19.64;97068.78;6298547;28;20044;-75
2023/04/21 06:41:46;;;;;;;2.33;1.30;;;;;;;16.37;20.18;97064.41;6297322;28;20104;-74
2023/04/21 06:44:51;;;;;;;3.92;1.73;;;;;;;16.28;20.37;97065.22;6298624;28;20055;-74
2023/04/21 06:47:55;;;;;;;6.20;1.52;;;;;;;16.32;20.49;97056.84;6297430;28;20045;-73
2023/04/21 06:51:01;;;;;;;3.08;1.83;;;;;;;15.97;20.89;97070.44;6298395;28;20425;-74
2023/04/21 06:54:06;;;;;;;7.25;3.15;;;;;;;16.09;21.26;97061.44;6298004;28;20040;-74
2023/04/21 06:57:10;;;;;;;3.80;2.20;;;;;;;15.78;21.71;97078.25;6296977;28;20058;-75
2023/04/21 07:00:13;;;;;;;3.83;1.25;;;;;;;15.78;23.08;97083.56;6297032;28;20069;-74
2023/04/21 07:03:18;;;;;;;2.20;1.02;;;;;;;14.99;24.02;97071.28;6298115;28;20102;-73
2023/04/21 07:06:22;;;;;;;2.72;0.90;;;;;;;15.07;23.83;97068.03;6297953;28;20133;-73
2023/04/21 07:09:27;;;;;;;4.28;1.60;;;;;;;15.50;23.72;97048.66;6296269;28;20105;-74
2023/04/21 07:12:32;;;;;;;2.80;1.33;;;;;;;15.92;23.28;97035.47;6296643;28;20045;-74
2023/04/21 07:15:37;;;;;;;5.45;1.30;;;;;;;16.31;22.97;97027.78;6297850;28;20083;-75
2023/04/21 07:18:41;;;;;;;4.45;1.33;;;;;;;16.61;22.65;97014.47;6297500;28;20044;-74
2023/04/21 07:21:46;;;;;;;2.45;1.23;;;;;;;16.88;22.49;97026.38;6297808;28;20044;-74
2023/04/21 07:24:51;;;;;;;5.57;1.48;;;;;;;17.28;22.31;97028.16;6297614;28;20510;-74
2023/04/21 07:27:56;;;;;;;2.78;1.30;;;;;;;18.00;21.42;97020.78;6297621;28;20141;-74
2023/04/21 07:31:00;;;;;;;2.72;1.65;;;;;;;18.73;20.51;97027.16;6296049;28;20127;-73
2023/04/21 07:34:04;;;;;;;2.55;1.30;;;;;;;19.24;20.46;97025.81;6297697;28;20036;-74
2023/04/21 07:37:08;;;;;;;6.35;1.33;;;;;;;19.66;19.91;97008.44;6313082;28;20167;-74
2023/04/21 07:40:13;;;;;;;1.67;0.98;;;;;;;20.15;19.29;97015.00;6295641;28;20190;-74
2023/04/21 07:43:18;;;;;;;2.90;1.20;;;;;;;20.84;18.54;97018.63;6297673;28;20418;-74
2023/04/21 07:46:28;;;;;;;2.40;1.20;;;;;;;21.76;17.63;97021.41;6295933;28;20049;-75
2023/04/21 07:49:33;;;;;;;3.03;1.10;;;;;;;22.91;16.74;97026.69;6296989;28;20482;-75
2023/04/21 07:52:41;;;;;;;2.60;1.10;;;;;;;22.81;16.09;97010.78;6296698;28;20051;-74
2023/04/21 07:55:46;;;;;;;1.67;0.90;;;;;;;21.90;16.86;97010.03;6297096;28;20090;-74
2023/04/21 07:58:51;;;;;;;1.15;0.80;;;;;;;21.60;17.14;97011.53;6297290;28;20044;-73
2023/04/21 08:01:55;;;;;;;2.22;1.13;;;;;;;21.96;16.70;97016.56;6297152;28;20051;-74
2023/04/21 08:05:00;;;;;;;1.20;0.80;;;;;;;22.31;16.76;97012.75;6296869;28;20036;-74
2023/04/21 08:08:04;;;;;;;1.58;1.35;;;;;;;22.44;16.52;97014.06;6295702;28;20044;-74
2023/04/21 08:11:09;;;;;;;3.30;0.75;;;;;;;21.94;16.65;97003.38;6296964;28;20056;-74
2023/04/21 08:14:14;;;;;;;2.70;1.58;;;;;;;20.87;17.36;96998.75;6296354;28;20055;-74
2023/04/21 08:17:19;;;;;;;4.40;2.10;;;;;;;19.19;19.30;97017.44;6296387;28;20059;-74
2023/04/21 08:20:24;;;;;;;3.10;1.33;;;;;;;18.62;19.59;97004.19;6296383;28;20413;-75
2023/04/21 08:23:31;;;;;;;1.25;1.00;;;;;;;17.87;20.17;96979.31;6294206;28;20449;-74
2023/04/21 08:26:35;;;;;;;2.13;1.23;;;;;;;17.40;20.90;96992.47;6296147;28;20063;-76
2023/04/21 08:29:39;;;;;;;3.03;1.35;;;;;;;17.67;20.96;96986.44;6277591;28;20514;-75
2023/04/21 08:32:44;;;;;;;2.00;1.25;;;;;;;18.84;19.78;96992.34;6295299;28;20036;-74
2023/04/21 08:35:49;;;;;;;2.42;1.60;;;;;;;19.67;19.19;96978.94;6295946;28;20508;-75
2023/04/21 08:38:54;;;;;;;3.88;2.15;;;;;;;21.13;17.82;96987.13;6295871;28;20182;-76
2023/04/21 08:41:58;;;;;;;3.28;2.08;;;;;;;23.23;16.21;96978.25;6294561;28;20498;-75
2023/04/21 08:45:02;;;;;;;4.90;2.13;;;;;;;25.44;14.30;96976.13;6295397;28;20041;-75
2023/04/21 08:48:17;;;;;;;6.28;3.92;;;;;;;27.04;13.55;96993.66;6294459;28;20135;-74
2023/04/21 08:51:26;;;;;;;8.68;4.53;;;;;;;27.22;12.84;96974.22;6295041;28;20067;-74
2023/04/21 08:54:30;;;;;;;3.47;1.60;;;;;;;26.91;13.15;96967.41;6293777;28;20037;-75
2023/04/21 08:57:36;;;;;;;2.10;0.90;;;;;;;27.12;13.02;96982.66;6293974;28;20049;-73
2023/04/21 09:00:45;;;;;;;5.28;2.58;;;;;;;27.77;12.69;96967.72;6277168;28;20141;-74
2023/04/21 09:03:54;;;;;;;5.45;2.05;;;;;;;28.99;11.95;96970.16;6293740;28;20045;-73
2023/04/21 09:07:09;;;;;;;2.83;1.48;;;;;;;28.78;11.82;96955.00;6295131;28;20123;-74
2023/04/21 09:10:14;;;;;;;3.40;1.25;;;;;;;28.63;11.85;96958.78;6295461;28;20402;-74
2023/04/21 09:13:20;;;;;;;1.55;0.80;;;;;;;29.06;11.52;96966.38;6295020;28;20050;-73
2023/04/21 09:16:28;;;;;;;2.20;1.10;;;;;;;28.84;11.54;96965.78;6295065;28;20075;-73
2023/04/21 09:19:33;;;;;;;2.00;1.00;;;;;;;27.01;12.52;96964.34;6295292;28;20391;-74
2023/04/21 09:22:39;;;;;;;1.83;1.00;;;;;;;26.51;13.27;96958.25;6294711;28;20048;-74
2023/04/21 09:25:45;;;;;;;1.55;1.02;;;;;;;28.02;11.85;96950.88;6294856;28;20052;-74
2023/04/21 09:28:51;;;;;;;1.35;1.00;;;;;;;29.70;11.03;96956.50;6293458;28;20468;-74
2023/04/21 09:31:56;;;;;;;2.58;1.27;;;;;;;31.74;9.98;96958.41;6294971;28;20166;-75
2023/04/21 09:35:03;;;;;;;2.13;1.25;;;;;;;31.62;9.57;96958.38;6293611;28;20040;-74
2023/04/21 09:38:13;;;;;;;4.10;1.27;;;;;;;28.35;11.47;96955.47;6294602;28;20048;-73
2023/04/21 09:41:18;;;;;;;1.73;0.80;;;;;;;26.95;12.74;96940.81;6294646;28;20044;-74
2023/04/21 09:44:24;;;;;;;2.30;1.05;;;;;;;28.52;11.54;96940.47;6294603;28;20044;-75
2023/04/21 09:47:33;;;;;;;1.25;0.77;;;;;;;29.59;10.76;96951.75;6293692;28;20047;-75
2023/04/21 09:50:38;;;;;;;2.03;1.10;;;;;;;27.76;11.79;96941.69;6294640;28;20043;-74
2023/04/21 09:53:46;;;;;;;2.78;1.30;;;;;;;26.46;12.86;96937.22;6294674;28;20037;-73
2023/04/21 09:56:55;;;;;;;2.45;1.05;;;;;;;26.30;12.81;96951.84;6309815;28;20056;-73
2023/04/21 10:00:08;;;;;;;1.88;0.80;;;;;;;25.27;13.40;96923.53;6293268;28;20032;-75
2023/04/21 10:03:13;;;;;;;3.13;1.50;;;;;;;24.31;14.34;96909.22;6293284;28;20044;-74
2023/04/21 10:06:21;;;;;;;2.88;1.35;;;;;;;24.08;14.74;96923.56;6294278;28;20052;-74
2023/04/21 10:09:29;;;;;;;3.72;1.75;;;;;;;23.30;15.24;96932.75;6292889;28;20036;-73
2023/04/21 10:12:34;;;;;;;2.10;1.00;;;;;;;22.71;15.73;96919.78;6294091;28;20417;-74
2023/04/21 10:15:40;;;;;;;4.00;1.30;;;;;;;21.99;16.46;96933.19;6293927;28;20057;-74
2023/04/21 10:18:46;;;;;;;3.40;1.33;;;;;;;21.62;17.04;96926.50;6294296;28;20040;-74
2023/04/21 10:21:49;;;;;;;3.83;0.82;;;;;;;21.02;17.45;96924.91;6292708;28;20051;-74
2023/04/21 10:24:57;;;;;;;2.78;1.00;;;;;;;20.81;17.99;96925.34;6293841;28;20426;-75
2023/04/21 10:28:05;;;;;;;1.35;1.00;;;;;;;20.33;18.63;96916.09;6293847;28;20076;-75
2023/04/21 10:31:34;;;;;;;2.92;1.27;;;;;;;20.11;19.37;96932.66;6294019;28;20048;-74
2023/04/21 10:34:40;;;;;;;1.17;1.08;;;;;;;19.30;20.63;96917.66;6293795;28;20048;-75
2023/04/21 10:37:47;;;;;;;1.85;1.00;;;;;;;19.08;20.98;96916.31;6293923;28;20576;-74
2023/04/21 10:40:52;;;;;;;2.38;1.40;;;;;;;18.66;21.13;96918.66;6293977;28;20044;-74
2023/04/21 10:44:17;;;;;;;3.67;1.00;;;;;;;18.43;21.13;96912.84;6294063;28;20037;-74
2023/04/21 10:47:40;;;;;;;1.58;1.00;;;;;;;18.54;21.41;96915.31;6292618;28;20037;-75
2023/04/21 10:50:51;;;;;;;1.35;0.90;;;;;;;18.35;21.66;96911.78;6275909;28;20473;-75
2023/04/21 10:53:57;;;;;;;3.38;1.83;;;;;;;18.51;21.25;96911.16;6296992;28;20413;-74
2023/04/21 10:57:05;;;;;;;1.40;1.13;;;;;;;19.18;20.68;96903.72;6298082;28;20048;-74
2023/04/21 11:00:11;;;;;;;2.33;0.80;;;;;;;19.69;19.85;96907.50;6297997;28;20041;-74
2023/04/21 11:03:16;;;;;;;1.58;1.00;;;;;;;19.58;19.68;96910.41;6297045;28;20055;-74
2023/04/21 11:06:22;;;;;;;1.55;1.17;;;;;;;19.11;20.49;96910.66;6298492;28;20445;-74
2023/04/21 11:09:28;;;;;;;3.33;1.25;;;;;;;18.57;20.92;96909.69;6296639;28;20052;-74
2023/04/21 11:12:35;;;;;;;1.48;0.80;;;;;;;18.11;21.49;96900.78;6297737;28;20048;-73
2023/04/21 11:15:40;;;;;;;1.45;0.80;;;;;;;17.66;22.22;96910.28;6296429;28;20141;-74
2023/04/21 11:18:46;;;;;;;3.80;1.40;;;;;;;18.04;22.21;96918.34;6297508;28;20049;-75
2023/04/21 11:21:54;;;;;;;1.70;1.00;;;;;;;18.07;22.37;96920.72;6296721;28;20047;-75
2023/04/21 11:25:00;;;;;;;2.20;1.10;;;;;;;17.56;22.84;96928.06;6297476;28;20148;-74
2023/04/21 11:28:06;;;;;;;2.05;1.08;;;;;;;17.39;22.98;96918.13;6297274;28;20075;-74
2023/04/21 11:31:11;;;;;;;3.72;1.70;;;;;;;17.09;23.68;96929.75;6296331;28;20036;-75
2023/04/21 11:34:15;;;;;;;1.60;0.93;;;;;;;16.83;24.95;96906.34;6296076;28;20366;-74
2023/04/21 11:37:28;;;;;;;1.92;1.02;;;;;;;17.12;24.07;96921.47;6297182;28;20040;-75
2023/04/21 11:40:50;;;;;;;1.80;0.70;;;;;;;17.36;23.29;96902.47;6296416;28;20044;-74
2023/04/21 11:43:55;;;;;;;1.20;0.90;;;;;;;17.64;23.15;96906.06;6297320;28;20048;-74
2023/04/21 11:46:59;;;;;;;2.50;1.35;;;;;;;17.90;22.99;96901.84;6295862;28;20044;-73
2023/04/21 11:50:02;;;;;;;2.38;1.42;;;;;;;17.55;23.57;96901.59;6297098;28;20048;-74
2023/04/21 11:53:12;;;;;;;2.60;1.00;;;;;;;17.60;23.18;96899.34;6295627;28;20040;-74
2023/04/21 11:56:20;;;;;;;3.03;1.30;;;;;;;17.67;23.14;96895.16;6295079;28;20052;-76
2023/04/21 11:59:25;;;;;;;2.03;0.98;;;;;;;18.00;22.80;96885.00;6296726;28;20121;-75
2023/04/21 12:02:31;;;;;;;1.63;0.90;;;;;;;18.30;22.45;96876.75;6296684;28;20101;-75
2023/04/21 12:05:36;;;;;;;2.42;1.00;;;;;;;18.45;22.20;96885.06;6295916;28;20036;-75
2023/04/21 12:08:41;;;;;;;1.15;1.00;;;;;;;18.25;22.40;96884.31;6295352;28;20037;-75
2023/04/21 12:11:49;;;;;;;4.13;1.10;;;;;;;18.00;22.38;96879.66;6295214;28;20147;-74
2023/04/21 12:14:53;;;;;;;1.35;0.90;;;;;;;17.71;22.74;96869.91;6278798;28;20586;-75
2023/04/21 12:17:58;;;;;;;5.22;1.60;;;;;;;17.62;22.81;96886.75;6296015;28;20403;-74
2023/04/21 12:21:03;;;;;;;5.85;2.45;;;;;;;18.03;22.42;96890.03;6295454;28;20056;-74
2023/04/21 12:24:07;;;;;;;2.72;1.15;;;;;;;17.61;23.03;96874.44;6296207;28;20414;-74
2023/04/21 12:27:14;;;;;;;3.80;0.90;;;;;;;17.56;22.79;96871.34;6296173;28;20045;-75
2023/04/21 12:30:20;;;;;;;3.90;1.45;;;;;;;17.79;22.76;96867.41;6296036;28;20052;-74
2023/04/21 12:33:24;;;;;;;2.35;1.80;;;;;;;17.98;22.46;96860.34;6278008;28;20044;-74
2023/04/21 12:36:31;;;;;;;2.80;1.50;;;;;;;17.80;22.36;96853.09;6294088;28;20418;-76
2023/04/21 12:39:35;;;;;;;3.45;1.52;;;;;;;17.67;22.62;96868.53;6295492;28;20041;-75
2023/04/21 12:42:42;;;;;;;4.63;2.65;;;;;;;17.62;22.52;96854.81;6295576;28;20521;-74
2023/04/21 12:45:46;;;;;;;5.60;2.25;;;;;;;17.50;22.29;96847.00;6295409;28;20040;-76
2023/04/21 12:48:59;;;;;;;5.95;2.03;;;;;;;17.20;22.57;96855.16;6294303;28;20111;-75
2023/04/21 12:52:05;;;;;;;3.97;2.03;;;;;;;17.03;23.12;96860.19;6294327;28;20071;-74
2023/04/21 12:55:12;;;;;;;2.67;1.92;;;;;;;17.02;23.18;96855.88;6293995;28;20429;-73
2023/04/21 12:58:16;;;;;;;4.15;2.28;;;;;;;16.96;23.23;96851.13;6277229;28;20532;-74
2023/04/21 13:01:23;;;;;;;3.08;1.80;;;;;;;16.84;23.01;96844.22;6293557;28;20064;-74
2023/04/21 13:04:27;;;;;;;2.40;1.17;;;;;;;16.77;23.11;96859.06;6294817;28;20056;-73
2023/04/21 13:07:33;;;;;;;2.28;1.55;;;;;;;16.59;23.14;96857.06;6277093;28;20426;-74
2023/04/21 13:10:39;;;;;;;3.72;2.60;;;;;;;16.63;23.19;96851.47;6293686;28;20421;-74
2023/04/21 13:13:43;;;;;;;5.28;2.58;;;;;;;16.44;23.61;96869.03;6294971;28;20040;-75
2023/04/21 13:16:48;;;;;;;4.85;1.65;;;;;;;16.37;23.61;96851.97;6294349;28;20052;-73
2023/04/21 13:19:55;;;;;;;3.53;1.85;;;;;;;16.33;23.88;96845.25;6293798;28;20040;-74
2023/04/21 13:22:59;;;;;;;1.98;1.73;;;;;;;16.49;23.62;96845.56;6294796;28;20051;-75
2023/04/21 13:26:03;;;;;;;4.10;1.80;;;;;;;16.46;23.72;96851.16;6294840;28;20091;-74
2023/04/21 13:29:09;;;;;;;3.28;1.40;;;;;;;16.53;23.55;96841.69;6294630;28;20037;-74
2023/04/21 13:32:13;;;;;;;3.97;1.88;;;;;;;16.59;23.44;96835.81;6294803;28;20041;-74
2023/04/21 13:35:17;;;;;;;4.18;1.70;;;;;;;16.61;23.54;96828.53;6294529;28;20425;-74
2023/04/21 13:38:21;;;;;;;1.83;1.15;;;;;;;16.42;23.62;96828.50;6294216;28;20509;-74
2023/04/21 13:41:26;;;;;;;6.00;1.92;;;;;;;16.44;23.92;96828.34;6292933;28;20052;-74
2023/04/21 13:44:31;;;;;;;2.58;2.10;;;;;;;16.51;23.86;96822.38;6294764;28;20072;-76
2023/04/21 13:47:35;;;;;;;6.63;3.10;;;;;;;16.49;24.14;96824.31;6293362;28;20040;-74
2023/04/21 13:50:40;;;;;;;5.20;2.10;;;;;;;16.47;23.62;96826.25;6294165;28;20038;-74
2023/04/21 13:53:44;;;;;;;4.47;2.17;;;;;;;16.44;23.65;96815.91;6293389;28;20044;-75
2023/04/21 13:56:47;;;;;;;3.38;1.35;;;;;;;16.35;23.58;96819.41;6294452;28;20498;-74
2023/04/21 13:59:54;;;;;;;1.95;1.13;;;;;;;16.17;23.74;96809.44;6276632;28;20037;-75
2023/04/21 14:03:00;;;;;;;1.77;1.42;;;;;;;16.10;23.82;96802.97;6294464;28;20040;-75
2023/04/21 14:06:06;;;;;;;3.35;2.05;;;;;;;16.15;23.81;96806.06;6294787;28;20186;-74
2023/04/21 14:09:13;;;;;;;4.82;2.33;;;;;;;16.13;23.86;96802.72;6294153;28;20039;-75
2023/04/21 14:12:19;;;;;;;4.25;2.60;;;;;;;16.11;23.92;96799.38;6292737;28;20094;-74
2023/04/21 14:15:25;;;;;;;3.05;1.73;;;;;;;16.10;23.93;96805.63;6292505;28;20037;-75
2023/04/21 14:18:32;;;;;;;2.53;1.42;;;;;;;16.08;23.96;96799.66;6294195;28;20041;-74
2023/04/21 14:21:37;;;;;;;2.92;1.85;;;;;;;16.01;24.01;96798.50;6293916;28;20040;-75
2023/04/21 14:24:58;;;;;;;5.70;3.00;;;;;;;15.87;24.17;96796.22;6293833;28;20041;-75
2023/04/21 14:28:05;;;;;;;2.55;1.73;;;;;;;15.69;24.29;96788.88;6296930;28;20494;-74
2023/04/21 14:31:10;;;;;;;3.58;1.80;;;;;;;15.61;24.30;96780.72;6298951;28;20090;-74
2023/04/21 14:34:15;;;;;;;1.75;1.13;;;;;;;15.55;24.36;96791.88;6298830;28;20049;-75
2023/04/21 14:37:25;;;;;;;1.92;1.10;;;;;;;15.51;24.34;96795.75;6298780;28;20045;-75